sensor_id;sensor_type;location;lat;lon;timestamp;P1;durP1;ratioP1;P2;durP2;ratioP2
23718;SDS011;43322;52.230;5.702;2023-11-18T00:01:02;53.70;;;28.27;;
23718;SDS011;43322;52.230;5.702;2023-11-18T00:03:29;56.55;;;29.40;;
23718;SDS011;43322;52.230;5.702;2023-11-18T00:05:56;55.90;;;29.15;;
23718;SDS011;43322;52.230;5.702;2023-11-18T00:08:22;60.72;;;30.30;;
23718;SDS011;43322;52.230;5.702;2023-11-18T00:10:49;58.28;;;30.73;;
23718;SDS011;43322;52.230;5.702;2023-11-18T00:13:16;57.75;;;29.65;;
23718;SDS011;43322;52.230;5.702;2023-11-18T00:15:43;55.63;;;29.80;;
23718;SDS011;43322;52.230;5.702;2023-11-18T00:18:12;55.40;;;28.75;;
23718;SDS011;43322;52.230;5.702;2023-11-18T00:20:39;59.45;;;30.05;;
23718;SDS011;43322;52.230;5.702;2023-11-18T00:23:05;60.53;;;29.75;;
23718;SDS011;43322;52.230;5.702;2023-11-18T00:25:32;59.40;;;29.35;;
23718;SDS011;43322;52.230;5.702;2023-11-18T00:28:00;56.92;;;29.25;;
23718;SDS011;43322;52.230;5.702;2023-11-18T00:30:26;60.72;;;30.27;;
23718;SDS011;43322;52.230;5.702;2023-11-18T00:32:54;57.90;;;29.40;;
23718;SDS011;43322;52.230;5.702;2023-11-18T00:35:22;58.03;;;29.92;;
23718;SDS011;43322;52.230;5.702;2023-11-18T00:37:48;55.95;;;30.10;;
23718;SDS011;43322;52.230;5.702;2023-11-18T00:40:15;57.67;;;31.10;;
23718;SDS011;43322;52.230;5.702;2023-11-18T00:42:43;56.50;;;28.23;;
23718;SDS011;43322;52.230;5.702;2023-11-18T00:45:10;58.22;;;30.77;;
23718;SDS011;43322;52.230;5.702;2023-11-18T00:47:38;63.67;;;31.52;;
23718;SDS011;43322;52.230;5.702;2023-11-18T00:50:06;54.60;;;30.80;;
23718;SDS011;43322;52.230;5.702;2023-11-18T00:52:35;65.70;;;31.08;;
23718;SDS011;43322;52.230;5.702;2023-11-18T00:55:04;62.92;;;31.92;;
23718;SDS011;43322;52.230;5.702;2023-11-18T00:57:32;59.40;;;30.13;;
23718;SDS011;43322;52.230;5.702;2023-11-18T00:59:58;58.92;;;30.58;;
23718;SDS011;43322;52.230;5.702;2023-11-18T01:02:25;50.63;;;27.50;;
23718;SDS011;43322;52.230;5.702;2023-11-18T01:04:52;59.53;;;31.15;;
23718;SDS011;43322;52.230;5.702;2023-11-18T01:07:20;60.83;;;31.38;;
23718;SDS011;43322;52.230;5.702;2023-11-18T01:09:48;61.67;;;31.58;;
23718;SDS011;43322;52.230;5.702;2023-11-18T01:12:15;65.80;;;31.23;;
23718;SDS011;43322;52.230;5.702;2023-11-18T01:14:42;62.25;;;31.88;;
23718;SDS011;43322;52.230;5.702;2023-11-18T01:17:08;58.17;;;31.10;;
23718;SDS011;43322;52.230;5.702;2023-11-18T01:19:35;60.88;;;30.75;;
23718;SDS011;43322;52.230;5.702;2023-11-18T01:22:02;63.00;;;31.45;;
23718;SDS011;43322;52.230;5.702;2023-11-18T01:24:30;62.42;;;32.63;;
23718;SDS011;43322;52.230;5.702;2023-11-18T01:26:58;57.88;;;30.10;;
23718;SDS011;43322;52.230;5.702;2023-11-18T01:29:24;64.63;;;30.15;;
23718;SDS011;43322;52.230;5.702;2023-11-18T01:31:52;54.92;;;29.02;;
23718;SDS011;43322;52.230;5.702;2023-11-18T01:34:20;64.22;;;31.48;;
23718;SDS011;43322;52.230;5.702;2023-11-18T01:36:47;64.47;;;31.63;;
23718;SDS011;43322;52.230;5.702;2023-11-18T01:39:14;70.63;;;33.45;;
23718;SDS011;43322;52.230;5.702;2023-11-18T01:41:42;64.00;;;32.00;;
23718;SDS011;43322;52.230;5.702;2023-11-18T01:44:10;70.22;;;33.35;;
23718;SDS011;43322;52.230;5.702;2023-11-18T01:46:39;74.45;;;35.42;;
23718;SDS011;43322;52.230;5.702;2023-11-18T01:49:10;68.38;;;34.53;;
23718;SDS011;43322;52.230;5.702;2023-11-18T01:51:38;72.30;;;34.47;;
23718;SDS011;43322;52.230;5.702;2023-11-18T01:54:06;72.10;;;35.55;;
23718;SDS011;43322;52.230;5.702;2023-11-18T01:56:36;79.82;;;35.35;;
23718;SDS011;43322;52.230;5.702;2023-11-18T01:59:03;71.47;;;34.22;;
23718;SDS011;43322;52.230;5.702;2023-11-18T02:01:33;64.35;;;33.33;;
23718;SDS011;43322;52.230;5.702;2023-11-18T02:04:01;66.07;;;33.33;;
23718;SDS011;43322;52.230;5.702;2023-11-18T02:06:28;77.72;;;34.88;;
23718;SDS011;43322;52.230;5.702;2023-11-18T02:08:54;69.13;;;34.25;;
23718;SDS011;43322;52.230;5.702;2023-11-18T02:11:23;65.95;;;34.72;;
23718;SDS011;43322;52.230;5.702;2023-11-18T02:13:56;74.32;;;35.95;;
23718;SDS011;43322;52.230;5.702;2023-11-18T02:16:27;68.10;;;34.42;;
23718;SDS011;43322;52.230;5.702;2023-11-18T02:18:56;58.90;;;31.98;;
23718;SDS011;43322;52.230;5.702;2023-11-18T02:21:24;107.75;;;35.38;;
23718;SDS011;43322;52.230;5.702;2023-11-18T02:23:51;68.60;;;35.10;;
23718;SDS011;43322;52.230;5.702;2023-11-18T02:26:23;75.20;;;37.38;;
23718;SDS011;43322;52.230;5.702;2023-11-18T02:28:50;89.93;;;37.92;;
23718;SDS011;43322;52.230;5.702;2023-11-18T02:31:20;76.47;;;37.22;;
23718;SDS011;43322;52.230;5.702;2023-11-18T02:33:54;75.68;;;36.55;;
23718;SDS011;43322;52.230;5.702;2023-11-18T02:36:26;78.22;;;38.53;;
23718;SDS011;43322;52.230;5.702;2023-11-18T02:39:01;72.35;;;38.60;;
23718;SDS011;43322;52.230;5.702;2023-11-18T02:41:34;72.25;;;37.47;;
23718;SDS011;43322;52.230;5.702;2023-11-18T02:44:01;82.18;;;39.22;;
23718;SDS011;43322;52.230;5.702;2023-11-18T02:46:33;85.03;;;38.88;;
23718;SDS011;43322;52.230;5.702;2023-11-18T02:49:00;82.78;;;40.15;;
23718;SDS011;43322;52.230;5.702;2023-11-18T02:51:27;80.80;;;38.63;;
23718;SDS011;43322;52.230;5.702;2023-11-18T02:53:54;66.07;;;34.92;;
23718;SDS011;43322;52.230;5.702;2023-11-18T02:56:21;84.15;;;39.70;;
23718;SDS011;43322;52.230;5.702;2023-11-18T02:58:49;75.70;;;39.55;;
23718;SDS011;43322;52.230;5.702;2023-11-18T03:01:16;73.00;;;37.58;;
23718;SDS011;43322;52.230;5.702;2023-11-18T03:03:44;84.72;;;39.85;;
23718;SDS011;43322;52.230;5.702;2023-11-18T03:06:11;78.43;;;39.60;;
23718;SDS011;43322;52.230;5.702;2023-11-18T03:08:37;75.10;;;38.17;;
23718;SDS011;43322;52.230;5.702;2023-11-18T03:11:06;77.03;;;37.55;;
23718;SDS011;43322;52.230;5.702;2023-11-18T03:13:34;75.13;;;39.05;;
23718;SDS011;43322;52.230;5.702;2023-11-18T03:16:05;74.10;;;38.58;;
23718;SDS011;43322;52.230;5.702;2023-11-18T03:18:36;85.35;;;38.25;;
23718;SDS011;43322;52.230;5.702;2023-11-18T03:21:04;96.70;;;39.28;;
23718;SDS011;43322;52.230;5.702;2023-11-18T03:23:32;73.70;;;36.33;;
23718;SDS011;43322;52.230;5.702;2023-11-18T03:25:59;73.95;;;37.13;;
23718;SDS011;43322;52.230;5.702;2023-11-18T03:28:26;76.28;;;38.78;;
23718;SDS011;43322;52.230;5.702;2023-11-18T03:30:52;72.57;;;37.33;;
23718;SDS011;43322;52.230;5.702;2023-11-18T03:33:20;72.53;;;36.45;;
23718;SDS011;43322;52.230;5.702;2023-11-18T03:35:47;68.72;;;36.47;;
23718;SDS011;43322;52.230;5.702;2023-11-18T03:38:14;76.70;;;38.17;;
23718;SDS011;43322;52.230;5.702;2023-11-18T03:40:42;83.28;;;39.42;;
23718;SDS011;43322;52.230;5.702;2023-11-18T03:43:10;77.95;;;38.80;;
23718;SDS011;43322;52.230;5.702;2023-11-18T03:45:38;76.47;;;39.20;;
23718;SDS011;43322;52.230;5.702;2023-11-18T03:48:04;80.15;;;38.40;;
23718;SDS011;43322;52.230;5.702;2023-11-18T03:50:32;71.18;;;35.80;;
23718;SDS011;43322;52.230;5.702;2023-11-18T03:52:59;71.15;;;36.17;;
23718;SDS011;43322;52.230;5.702;2023-11-18T03:55:28;68.75;;;35.88;;
23718;SDS011;43322;52.230;5.702;2023-11-18T03:57:54;73.43;;;37.78;;
23718;SDS011;43322;52.230;5.702;2023-11-18T04:00:22;76.60;;;37.80;;
23718;SDS011;43322;52.230;5.702;2023-11-18T04:02:54;77.65;;;39.00;;
23718;SDS011;43322;52.230;5.702;2023-11-18T04:05:21;78.85;;;37.97;;
23718;SDS011;43322;52.230;5.702;2023-11-18T04:07:49;77.30;;;38.03;;
23718;SDS011;43322;52.230;5.702;2023-11-18T04:10:16;84.03;;;36.95;;
23718;SDS011;43322;52.230;5.702;2023-11-18T04:12:45;72.10;;;36.60;;
23718;SDS011;43322;52.230;5.702;2023-11-18T04:15:13;84.05;;;39.35;;
23718;SDS011;43322;52.230;5.702;2023-11-18T04:17:40;75.57;;;37.40;;
23718;SDS011;43322;52.230;5.702;2023-11-18T04:20:09;80.72;;;37.42;;
23718;SDS011;43322;52.230;5.702;2023-11-18T04:22:37;91.05;;;39.67;;
23718;SDS011;43322;52.230;5.702;2023-11-18T04:25:06;90.63;;;38.67;;
23718;SDS011;43322;52.230;5.702;2023-11-18T04:27:34;81.50;;;38.80;;
23718;SDS011;43322;52.230;5.702;2023-11-18T04:30:00;88.82;;;38.47;;
23718;SDS011;43322;52.230;5.702;2023-11-18T04:32:27;84.78;;;38.13;;
23718;SDS011;43322;52.230;5.702;2023-11-18T04:34:57;89.03;;;38.92;;
23718;SDS011;43322;52.230;5.702;2023-11-18T04:37:23;75.05;;;36.50;;
23718;SDS011;43322;52.230;5.702;2023-11-18T04:39:50;77.47;;;35.55;;
23718;SDS011;43322;52.230;5.702;2023-11-18T04:42:18;72.82;;;34.92;;
23718;SDS011;43322;52.230;5.702;2023-11-18T04:44:45;82.50;;;38.42;;
23718;SDS011;43322;52.230;5.702;2023-11-18T04:47:11;83.28;;;37.78;;
23718;SDS011;43322;52.230;5.702;2023-11-18T04:49:38;82.47;;;38.28;;
23718;SDS011;43322;52.230;5.702;2023-11-18T04:52:05;75.32;;;35.47;;
23718;SDS011;43322;52.230;5.702;2023-11-18T04:54:32;79.93;;;36.65;;
23718;SDS011;43322;52.230;5.702;2023-11-18T04:56:59;81.70;;;37.60;;
23718;SDS011;43322;52.230;5.702;2023-11-18T04:59:27;83.32;;;36.53;;
23718;SDS011;43322;52.230;5.702;2023-11-18T05:01:55;84.55;;;36.85;;
23718;SDS011;43322;52.230;5.702;2023-11-18T05:04:22;81.20;;;37.97;;
23718;SDS011;43322;52.230;5.702;2023-11-18T05:06:49;84.60;;;37.38;;
23718;SDS011;43322;52.230;5.702;2023-11-18T05:09:16;82.38;;;38.30;;
23718;SDS011;43322;52.230;5.702;2023-11-18T05:11:43;85.32;;;37.90;;
23718;SDS011;43322;52.230;5.702;2023-11-18T05:14:10;87.05;;;38.47;;
23718;SDS011;43322;52.230;5.702;2023-11-18T05:16:38;80.88;;;37.17;;
23718;SDS011;43322;52.230;5.702;2023-11-18T05:19:05;89.60;;;37.83;;
23718;SDS011;43322;52.230;5.702;2023-11-18T05:21:32;87.50;;;38.33;;
23718;SDS011;43322;52.230;5.702;2023-11-18T05:23:59;85.50;;;38.38;;
23718;SDS011;43322;52.230;5.702;2023-11-18T05:26:26;86.72;;;37.17;;
23718;SDS011;43322;52.230;5.702;2023-11-18T05:28:52;83.30;;;38.17;;
23718;SDS011;43322;52.230;5.702;2023-11-18T05:31:19;79.80;;;36.00;;
23718;SDS011;43322;52.230;5.702;2023-11-18T05:33:47;77.35;;;36.35;;
23718;SDS011;43322;52.230;5.702;2023-11-18T05:36:16;89.65;;;37.92;;
23718;SDS011;43322;52.230;5.702;2023-11-18T05:38:51;88.53;;;38.90;;
23718;SDS011;43322;52.230;5.702;2023-11-18T05:41:18;86.90;;;38.25;;
23718;SDS011;43322;52.230;5.702;2023-11-18T05:43:52;87.25;;;37.90;;
23718;SDS011;43322;52.230;5.702;2023-11-18T05:46:22;85.32;;;39.50;;
23718;SDS011;43322;52.230;5.702;2023-11-18T05:48:52;83.53;;;37.88;;
23718;SDS011;43322;52.230;5.702;2023-11-18T05:51:20;88.07;;;37.85;;
23718;SDS011;43322;52.230;5.702;2023-11-18T05:53:48;92.82;;;38.70;;
23718;SDS011;43322;52.230;5.702;2023-11-18T05:56:15;86.93;;;39.03;;
23718;SDS011;43322;52.230;5.702;2023-11-18T05:58:42;90.13;;;38.15;;
23718;SDS011;43322;52.230;5.702;2023-11-18T06:01:09;85.68;;;38.08;;
23718;SDS011;43322;52.230;5.702;2023-11-18T06:03:36;80.68;;;36.08;;
23718;SDS011;43322;52.230;5.702;2023-11-18T06:06:06;84.50;;;37.75;;
23718;SDS011;43322;52.230;5.702;2023-11-18T06:08:34;87.20;;;38.08;;
23718;SDS011;43322;52.230;5.702;2023-11-18T06:11:04;83.75;;;36.67;;
23718;SDS011;43322;52.230;5.702;2023-11-18T06:13:38;84.40;;;37.78;;
23718;SDS011;43322;52.230;5.702;2023-11-18T06:16:07;90.72;;;37.25;;
23718;SDS011;43322;52.230;5.702;2023-11-18T06:18:35;87.05;;;36.35;;
23718;SDS011;43322;52.230;5.702;2023-11-18T06:21:02;86.47;;;37.40;;
23718;SDS011;43322;52.230;5.702;2023-11-18T06:23:30;85.70;;;36.22;;
23718;SDS011;43322;52.230;5.702;2023-11-18T06:25:57;80.75;;;37.03;;
23718;SDS011;43322;52.230;5.702;2023-11-18T06:28:25;85.22;;;37.30;;
23718;SDS011;43322;52.230;5.702;2023-11-18T06:30:52;88.88;;;36.97;;
23718;SDS011;43322;52.230;5.702;2023-11-18T06:33:17;80.90;;;37.38;;
23718;SDS011;43322;52.230;5.702;2023-11-18T06:35:47;78.40;;;35.40;;
23718;SDS011;43322;52.230;5.702;2023-11-18T06:38:14;80.75;;;36.35;;
23718;SDS011;43322;52.230;5.702;2023-11-18T06:40:45;87.20;;;36.83;;
23718;SDS011;43322;52.230;5.702;2023-11-18T06:43:12;83.20;;;38.47;;
23718;SDS011;43322;52.230;5.702;2023-11-18T06:45:41;83.57;;;37.75;;
23718;SDS011;43322;52.230;5.702;2023-11-18T06:48:09;78.88;;;37.67;;
23718;SDS011;43322;52.230;5.702;2023-11-18T06:50:35;80.90;;;37.08;;
23718;SDS011;43322;52.230;5.702;2023-11-18T06:53:04;80.78;;;35.90;;
23718;SDS011;43322;52.230;5.702;2023-11-18T06:55:33;80.72;;;36.28;;
23718;SDS011;43322;52.230;5.702;2023-11-18T06:58:02;78.57;;;35.80;;
23718;SDS011;43322;52.230;5.702;2023-11-18T07:00:29;79.85;;;35.15;;
23718;SDS011;43322;52.230;5.702;2023-11-18T07:02:56;75.75;;;36.17;;
23718;SDS011;43322;52.230;5.702;2023-11-18T07:05:23;74.32;;;35.65;;
23718;SDS011;43322;52.230;5.702;2023-11-18T07:07:50;75.55;;;34.00;;
23718;SDS011;43322;52.230;5.702;2023-11-18T07:10:16;66.80;;;33.97;;
23718;SDS011;43322;52.230;5.702;2023-11-18T07:12:45;69.35;;;33.33;;
23718;SDS011;43322;52.230;5.702;2023-11-18T07:15:14;69.25;;;34.08;;
23718;SDS011;43322;52.230;5.702;2023-11-18T07:17:40;74.80;;;34.65;;
23718;SDS011;43322;52.230;5.702;2023-11-18T07:20:07;67.60;;;34.33;;
23718;SDS011;43322;52.230;5.702;2023-11-18T07:22:37;73.55;;;35.20;;
23718;SDS011;43322;52.230;5.702;2023-11-18T07:25:05;73.78;;;34.28;;
23718;SDS011;43322;52.230;5.702;2023-11-18T07:27:34;68.18;;;34.15;;
23718;SDS011;43322;52.230;5.702;2023-11-18T07:30:01;70.43;;;34.95;;
23718;SDS011;43322;52.230;5.702;2023-11-18T07:32:32;67.75;;;33.40;;
23718;SDS011;43322;52.230;5.702;2023-11-18T07:34:59;67.13;;;34.20;;
23718;SDS011;43322;52.230;5.702;2023-11-18T07:37:26;73.65;;;35.90;;
23718;SDS011;43322;52.230;5.702;2023-11-18T07:39:53;61.90;;;32.47;;
23718;SDS011;43322;52.230;5.702;2023-11-18T07:42:20;68.10;;;34.83;;
23718;SDS011;43322;52.230;5.702;2023-11-18T07:44:46;66.88;;;33.00;;
23718;SDS011;43322;52.230;5.702;2023-11-18T07:47:14;70.47;;;34.03;;
23718;SDS011;43322;52.230;5.702;2023-11-18T07:49:42;66.25;;;34.58;;
23718;SDS011;43322;52.230;5.702;2023-11-18T07:52:10;67.28;;;33.35;;
23718;SDS011;43322;52.230;5.702;2023-11-18T07:54:37;61.33;;;31.45;;
23718;SDS011;43322;52.230;5.702;2023-11-18T07:57:04;70.55;;;34.00;;
23718;SDS011;43322;52.230;5.702;2023-11-18T07:59:35;58.78;;;32.70;;
23718;SDS011;43322;52.230;5.702;2023-11-18T08:02:02;62.58;;;32.30;;
23718;SDS011;43322;52.230;5.702;2023-11-18T08:04:34;58.95;;;32.35;;
23718;SDS011;43322;52.230;5.702;2023-11-18T08:07:02;62.25;;;32.60;;
23718;SDS011;43322;52.230;5.702;2023-11-18T08:09:30;67.55;;;33.40;;
23718;SDS011;43322;52.230;5.702;2023-11-18T08:11:57;59.90;;;31.88;;
23718;SDS011;43322;52.230;5.702;2023-11-18T08:14:24;66.45;;;33.83;;
23718;SDS011;43322;52.230;5.702;2023-11-18T08:16:51;63.35;;;32.20;;
23718;SDS011;43322;52.230;5.702;2023-11-18T08:19:18;58.15;;;31.83;;
23718;SDS011;43322;52.230;5.702;2023-11-18T08:21:47;66.25;;;32.78;;
23718;SDS011;43322;52.230;5.702;2023-11-18T08:24:15;63.90;;;32.15;;
23718;SDS011;43322;52.230;5.702;2023-11-18T08:26:42;62.45;;;32.38;;
23718;SDS011;43322;52.230;5.702;2023-11-18T08:29:08;56.63;;;30.55;;
23718;SDS011;43322;52.230;5.702;2023-11-18T08:31:38;59.80;;;30.75;;
23718;SDS011;43322;52.230;5.702;2023-11-18T08:34:04;56.08;;;30.98;;
23718;SDS011;43322;52.230;5.702;2023-11-18T08:36:31;60.08;;;31.08;;
23718;SDS011;43322;52.230;5.702;2023-11-18T08:38:59;59.42;;;31.27;;
23718;SDS011;43322;52.230;5.702;2023-11-18T08:41:27;56.33;;;30.70;;
23718;SDS011;43322;52.230;5.702;2023-11-18T08:43:56;52.47;;;28.98;;
23718;SDS011;43322;52.230;5.702;2023-11-18T08:46:22;58.08;;;29.67;;
23718;SDS011;43322;52.230;5.702;2023-11-18T08:48:50;56.63;;;29.52;;
23718;SDS011;43322;52.230;5.702;2023-11-18T08:51:16;54.45;;;27.85;;
23718;SDS011;43322;52.230;5.702;2023-11-18T08:53:43;54.72;;;28.38;;
23718;SDS011;43322;52.230;5.702;2023-11-18T08:56:10;54.00;;;27.92;;
23718;SDS011;43322;52.230;5.702;2023-11-18T08:58:41;49.40;;;26.20;;
23718;SDS011;43322;52.230;5.702;2023-11-18T09:01:09;48.80;;;27.33;;
23718;SDS011;43322;52.230;5.702;2023-11-18T09:03:39;53.13;;;26.80;;
23718;SDS011;43322;52.230;5.702;2023-11-18T09:06:13;48.30;;;27.23;;
23718;SDS011;43322;52.230;5.702;2023-11-18T09:08:44;44.63;;;25.40;;
23718;SDS011;43322;52.230;5.702;2023-11-18T09:11:17;45.15;;;25.48;;
23718;SDS011;43322;52.230;5.702;2023-11-18T09:13:46;48.80;;;24.98;;
23718;SDS011;43322;52.230;5.702;2023-11-18T09:16:14;46.08;;;24.73;;
23718;SDS011;43322;52.230;5.702;2023-11-18T09:18:42;47.90;;;24.10;;
23718;SDS011;43322;52.230;5.702;2023-11-18T09:21:10;49.25;;;24.33;;
23718;SDS011;43322;52.230;5.702;2023-11-18T09:23:39;47.05;;;24.13;;
23718;SDS011;43322;52.230;5.702;2023-11-18T09:26:07;39.97;;;23.08;;
23718;SDS011;43322;52.230;5.702;2023-11-18T09:28:35;41.67;;;22.60;;
23718;SDS011;43322;52.230;5.702;2023-11-18T09:31:04;40.97;;;22.60;;
23718;SDS011;43322;52.230;5.702;2023-11-18T09:33:36;40.65;;;21.85;;
23718;SDS011;43322;52.230;5.702;2023-11-18T09:36:05;38.05;;;21.75;;
23718;SDS011;43322;52.230;5.702;2023-11-18T09:38:33;42.90;;;23.00;;
23718;SDS011;43322;52.230;5.702;2023-11-18T09:41:02;38.33;;;20.95;;
23718;SDS011;43322;52.230;5.702;2023-11-18T09:43:32;34.47;;;19.58;;
23718;SDS011;43322;52.230;5.702;2023-11-18T09:46:08;36.17;;;19.95;;
23718;SDS011;43322;52.230;5.702;2023-11-18T09:48:39;40.35;;;19.80;;
23718;SDS011;43322;52.230;5.702;2023-11-18T09:51:12;35.88;;;18.92;;
23718;SDS011;43322;52.230;5.702;2023-11-18T09:53:42;32.28;;;17.90;;
23718;SDS011;43322;52.230;5.702;2023-11-18T09:56:13;33.45;;;18.63;;
23718;SDS011;43322;52.230;5.702;2023-11-18T09:58:54;29.30;;;17.60;;
23718;SDS011;43322;52.230;5.702;2023-11-18T10:01:32;31.88;;;17.77;;
23718;SDS011;43322;52.230;5.702;2023-11-18T10:04:04;31.20;;;17.98;;
23718;SDS011;43322;52.230;5.702;2023-11-18T10:06:32;30.23;;;16.98;;
23718;SDS011;43322;52.230;5.702;2023-11-18T10:09:01;40.30;;;17.80;;
23718;SDS011;43322;52.230;5.702;2023-11-18T10:11:40;31.08;;;16.40;;
23718;SDS011;43322;52.230;5.702;2023-11-18T10:14:08;36.92;;;16.85;;
23718;SDS011;43322;52.230;5.702;2023-11-18T10:16:37;33.92;;;16.58;;
23718;SDS011;43322;52.230;5.702;2023-11-18T10:19:04;27.73;;;15.73;;
23718;SDS011;43322;52.230;5.702;2023-11-18T10:21:37;35.58;;;15.80;;
23718;SDS011;43322;52.230;5.702;2023-11-18T10:24:05;28.52;;;15.65;;
23718;SDS011;43322;52.230;5.702;2023-11-18T10:26:39;32.03;;;16.52;;
23718;SDS011;43322;52.230;5.702;2023-11-18T10:29:06;33.60;;;16.27;;
23718;SDS011;43322;52.230;5.702;2023-11-18T10:31:37;36.70;;;16.95;;
23718;SDS011;43322;52.230;5.702;2023-11-18T10:34:10;30.30;;;16.65;;
23718;SDS011;43322;52.230;5.702;2023-11-18T10:36:40;37.42;;;16.42;;
23718;SDS011;43322;52.230;5.702;2023-11-18T10:39:10;39.35;;;18.38;;
23718;SDS011;43322;52.230;5.702;2023-11-18T10:41:41;36.25;;;16.17;;
23718;SDS011;43322;52.230;5.702;2023-11-18T10:44:09;35.28;;;16.77;;
23718;SDS011;43322;52.230;5.702;2023-11-18T10:46:41;30.95;;;17.25;;
23718;SDS011;43322;52.230;5.702;2023-11-18T10:49:17;37.08;;;17.05;;
23718;SDS011;43322;52.230;5.702;2023-11-18T10:51:45;29.10;;;16.13;;
23718;SDS011;43322;52.230;5.702;2023-11-18T10:54:12;35.28;;;16.17;;
23718;SDS011;43322;52.230;5.702;2023-11-18T10:56:48;32.92;;;17.20;;
23718;SDS011;43322;52.230;5.702;2023-11-18T10:59:15;33.33;;;16.02;;
23718;SDS011;43322;52.230;5.702;2023-11-18T11:01:45;37.50;;;16.33;;
23718;SDS011;43322;52.230;5.702;2023-11-18T11:04:14;39.13;;;15.93;;
23718;SDS011;43322;52.230;5.702;2023-11-18T11:06:46;31.45;;;15.68;;
23718;SDS011;43322;52.230;5.702;2023-11-18T11:09:18;30.55;;;15.68;;
23718;SDS011;43322;52.230;5.702;2023-11-18T11:11:50;38.60;;;16.55;;
23718;SDS011;43322;52.230;5.702;2023-11-18T11:14:20;37.10;;;16.33;;
23718;SDS011;43322;52.230;5.702;2023-11-18T11:16:52;32.45;;;15.75;;
23718;SDS011;43322;52.230;5.702;2023-11-18T11:19:24;32.65;;;15.52;;
23718;SDS011;43322;52.230;5.702;2023-11-18T11:21:55;34.65;;;15.15;;
23718;SDS011;43322;52.230;5.702;2023-11-18T11:24:35;33.40;;;15.68;;
23718;SDS011;43322;52.230;5.702;2023-11-18T11:27:17;33.92;;;15.65;;
23718;SDS011;43322;52.230;5.702;2023-11-18T11:29:55;32.50;;;15.55;;
23718;SDS011;43322;52.230;5.702;2023-11-18T11:32:38;33.38;;;15.82;;
23718;SDS011;43322;52.230;5.702;2023-11-18T11:35:14;38.58;;;16.30;;
23718;SDS011;43322;52.230;5.702;2023-11-18T11:37:46;38.15;;;15.95;;
23718;SDS011;43322;52.230;5.702;2023-11-18T11:40:15;31.92;;;16.20;;
23718;SDS011;43322;52.230;5.702;2023-11-18T11:42:47;37.67;;;16.20;;
23718;SDS011;43322;52.230;5.702;2023-11-18T11:45:20;27.98;;;14.77;;
23718;SDS011;43322;52.230;5.702;2023-11-18T11:47:54;31.48;;;15.05;;
23718;SDS011;43322;52.230;5.702;2023-11-18T11:50:41;22.48;;;13.02;;
23718;SDS011;43322;52.230;5.702;2023-11-18T11:53:15;25.58;;;13.68;;
23718;SDS011;43322;52.230;5.702;2023-11-18T11:55:49;29.65;;;13.25;;
23718;SDS011;43322;52.230;5.702;2023-11-18T11:58:25;23.70;;;13.57;;
23718;SDS011;43322;52.230;5.702;2023-11-18T12:00:52;32.63;;;14.27;;
23718;SDS011;43322;52.230;5.702;2023-11-18T12:03:20;24.65;;;13.32;;
23718;SDS011;43322;52.230;5.702;2023-11-18T12:05:48;28.45;;;13.75;;
23718;SDS011;43322;52.230;5.702;2023-11-18T12:08:17;38.88;;;14.73;;
23718;SDS011;43322;52.230;5.702;2023-11-18T12:10:50;23.98;;;13.30;;
23718;SDS011;43322;52.230;5.702;2023-11-18T12:13:18;25.30;;;12.80;;
23718;SDS011;43322;52.230;5.702;2023-11-18T12:15:49;24.42;;;12.88;;
23718;SDS011;43322;52.230;5.702;2023-11-18T12:18:23;26.23;;;13.68;;
23718;SDS011;43322;52.230;5.702;2023-11-18T12:20:50;24.75;;;12.52;;
23718;SDS011;43322;52.230;5.702;2023-11-18T12:23:21;21.48;;;12.30;;
23718;SDS011;43322;52.230;5.702;2023-11-18T12:25:57;28.13;;;12.70;;
23718;SDS011;43322;52.230;5.702;2023-11-18T12:28:27;27.05;;;12.98;;
23718;SDS011;43322;52.230;5.702;2023-11-18T12:30:56;24.50;;;12.40;;
23718;SDS011;43322;52.230;5.702;2023-11-18T12:42:49;24.52;;;12.40;;
23718;SDS011;43322;52.230;5.702;2023-11-18T12:45:41;27.02;;;12.80;;
23718;SDS011;43322;52.230;5.702;2023-11-18T12:48:09;26.35;;;12.73;;
23718;SDS011;43322;52.230;5.702;2023-11-18T12:50:40;25.70;;;12.57;;
23718;SDS011;43322;52.230;5.702;2023-11-18T12:53:09;22.23;;;12.00;;
23718;SDS011;43322;52.230;5.702;2023-11-18T12:55:39;20.80;;;11.98;;
23718;SDS011;43322;52.230;5.702;2023-11-18T12:58:08;26.02;;;11.90;;
23718;SDS011;43322;52.230;5.702;2023-11-18T13:00:36;22.67;;;11.85;;
23718;SDS011;43322;52.230;5.702;2023-11-18T13:03:07;21.08;;;11.48;;
23718;SDS011;43322;52.230;5.702;2023-11-18T13:05:35;23.60;;;11.93;;
23718;SDS011;43322;52.230;5.702;2023-11-18T13:08:02;24.52;;;11.43;;
23718;SDS011;43322;52.230;5.702;2023-11-18T13:10:29;22.80;;;11.55;;
23718;SDS011;43322;52.230;5.702;2023-11-18T13:12:56;17.33;;;10.15;;
23718;SDS011;43322;52.230;5.702;2023-11-18T13:15:26;17.17;;;10.10;;
23718;SDS011;43322;52.230;5.702;2023-11-18T13:17:57;22.67;;;10.70;;
23718;SDS011;43322;52.230;5.702;2023-11-18T13:20:25;17.15;;;9.68;;
23718;SDS011;43322;52.230;5.702;2023-11-18T13:22:52;16.42;;;9.70;;
23718;SDS011;43322;52.230;5.702;2023-11-18T13:25:20;19.77;;;8.70;;
23718;SDS011;43322;52.230;5.702;2023-11-18T13:27:47;17.20;;;8.73;;
23718;SDS011;43322;52.230;5.702;2023-11-18T13:30:15;17.35;;;10.02;;
23718;SDS011;43322;52.230;5.702;2023-11-18T13:32:44;13.63;;;8.27;;
23718;SDS011;43322;52.230;5.702;2023-11-18T13:35:11;20.08;;;8.43;;
23718;SDS011;43322;52.230;5.702;2023-11-18T13:37:45;11.60;;;8.27;;
23718;SDS011;43322;52.230;5.702;2023-11-18T13:40:13;15.40;;;8.32;;
23718;SDS011;43322;52.230;5.702;2023-11-18T13:42:43;10.43;;;7.65;;
23718;SDS011;43322;52.230;5.702;2023-11-18T13:45:11;14.05;;;7.82;;
23718;SDS011;43322;52.230;5.702;2023-11-18T13:47:49;12.20;;;7.50;;
23718;SDS011;43322;52.230;5.702;2023-11-18T13:50:17;11.77;;;7.40;;
23718;SDS011;43322;52.230;5.702;2023-11-18T13:52:44;12.35;;;6.97;;
23718;SDS011;43322;52.230;5.702;2023-11-18T13:55:12;10.93;;;7.07;;
23718;SDS011;43322;52.230;5.702;2023-11-18T13:57:46;13.40;;;7.28;;
23718;SDS011;43322;52.230;5.702;2023-11-18T14:00:13;9.95;;;5.70;;
23718;SDS011;43322;52.230;5.702;2023-11-18T14:02:42;9.48;;;5.80;;
23718;SDS011;43322;52.230;5.702;2023-11-18T14:05:16;9.65;;;6.13;;
23718;SDS011;43322;52.230;5.702;2023-11-18T14:07:45;9.57;;;5.93;;
23718;SDS011;43322;52.230;5.702;2023-11-18T14:10:13;6.75;;;5.93;;
23718;SDS011;43322;52.230;5.702;2023-11-18T14:12:40;8.60;;;5.43;;
23718;SDS011;43322;52.230;5.702;2023-11-18T14:15:25;6.97;;;5.47;;
23718;SDS011;43322;52.230;5.702;2023-11-18T14:17:51;8.65;;;5.70;;
23718;SDS011;43322;52.230;5.702;2023-11-18T14:20:19;10.48;;;5.90;;
23718;SDS011;43322;52.230;5.702;2023-11-18T14:22:47;9.30;;;5.25;;
23718;SDS011;43322;52.230;5.702;2023-11-18T14:25:14;7.25;;;5.45;;
23718;SDS011;43322;52.230;5.702;2023-11-18T14:27:42;11.25;;;5.30;;
23718;SDS011;43322;52.230;5.702;2023-11-18T14:30:09;5.43;;;4.78;;
23718;SDS011;43322;52.230;5.702;2023-11-18T14:32:37;7.40;;;5.07;;
23718;SDS011;43322;52.230;5.702;2023-11-18T14:35:05;6.65;;;5.13;;
23718;SDS011;43322;52.230;5.702;2023-11-18T14:37:36;6.55;;;5.13;;
23718;SDS011;43322;52.230;5.702;2023-11-18T14:40:07;6.68;;;4.20;;
23718;SDS011;43322;52.230;5.702;2023-11-18T14:42:38;5.88;;;4.55;;